TimeCST,TemperatureF,Dew PointF,Humidity,Sea Level PressureIn,VisibilityMPH,Wind Direction,Wind SpeedMPH,Gust SpeedMPH,PrecipitationIn,Events,Conditions,WindDirDegrees,DateUTC
12:00 AM,68,65,88,29.87,12,Calm,Calm,,,,Mostly Cloudy,,2013-11-26 06:00:00
12:00 AM,66.2,66.2,100,30.01,-9999.0,Calm,Calm,-,N/A,,Clear,0,2013-11-26 06:00:00
1:00 AM,66.2,62.6,88,29.99,-9999.0,ENE,3.5,-,N/A,,Clear,70,2013-11-26 07:00:00
2:00 AM,64.4,62.6,94,29.98,-9999.0,ENE,2.3,-,N/A,,Clear,60,2013-11-26 08:00:00
3:00 AM,63,62,96,29.87,12,ENE,3.5,,,,Scattered Clouds,70,2013-11-26 09:00:00
3:00 AM,62.6,62.6,100,29.98,6.2,ENE,3.5,-,N/A,,Scattered Clouds,70,2013-11-26 09:00:00
4:00 AM,64.4,60.8,88,29.98,6.2,ENE,4.6,-,N/A,,Scattered Clouds,60,2013-11-26 10:00:00
5:00 AM,62.6,60.8,94,29.98,-9999.0,East,4.6,-,N/A,,Clear,80,2013-11-26 11:00:00
6:00 AM,63,59,83,29.89,12,ENE,5.8,,,,,70,2013-11-26 12:00:00
6:00 AM,62.6,59.0,88,29.99,-9999.0,ENE,5.8,-,N/A,,Clear,70,2013-11-26 12:00:00
7:00 AM,69.8,60.8,73,30.00,-9999.0,NE,6.9,-,N/A,,Clear,50,2013-11-26 13:00:00
8:00 AM,73.4,60.8,65,30.02,-9999.0,ESE,5.8,-,N/A,,Clear,120,2013-11-26 14:00:00
9:00 AM,78.8,60.8,54,30.03,-9999.0,South,4.6,-,N/A,,Clear,170,2013-11-26 15:00:00
10:00 AM,78.8,64.4,61,30.02,6.2,WSW,6.9,-,N/A,,Partly Cloudy,250,2013-11-26 16:00:00
11:00 AM,78.8,64.4,61,29.99,6.2,WSW,8.1,-,N/A,,Partly Cloudy,250,2013-11-26 17:00:00
12:00 PM,79,65,53,29.83,12,WSW,10.4,,,,Partly Cloudy,240,2013-11-26 18:00:00
12:00 PM,78.8,64.4,61,29.98,6.2,WSW,10.4,-,N/A,,Scattered Clouds,240,2013-11-26 18:00:00
1:00 PM,78.8,68.0,69,29.95,6.2,WSW,11.5,-,N/A,,Scattered Clouds,240,2013-11-26 19:00:00
2:00 PM,78.8,68.0,69,29.93,6.2,West,11.5,-,N/A,,Scattered Clouds,260,2013-11-26 20:00:00
3:00 PM,74,68,76,29.81,12,WSW,12.7,,,,Mostly Cloudy,250,2013-11-26 21:00:00
3:00 PM,75.2,68.0,78,29.92,6.2,WSW,12.7,-,N/A,,Scattered Clouds,250,2013-11-26 21:00:00
4:00 PM,73.4,68.0,83,29.93,6.2,WSW,9.2,-,N/A,Rain,Light Rain,240,2013-11-26 22:00:00
5:00 PM,71.6,66.2,83,29.96,6.2,SW,5.8,-,N/A,,Drizzle,230,2013-11-26 23:00:00
6:00 PM,70,69,96,29.88,9,WSW,4.6,,,Rain,Light Drizzle,250,2013-11-27 00:00:00
6:00 PM,69.8,69.8,100,29.98,6.2,WSW,4.6,-,N/A,Fog,Mostly Cloudy,250,2013-11-27 00:00:00
7:00 PM,69.8,69.8,100,30.00,6.2,West,3.5,-,N/A,Fog,Mostly Cloudy,260,2013-11-27 01:00:00
8:00 PM,69.8,69.8,100,30.03,6.2,West,3.5,-,N/A,Fog,Mostly Cloudy,280,2013-11-27 02:00:00
9:00 PM,69,68,95,29.89,12,WSW,2.3,,,,Partly Cloudy,250,2013-11-27 03:00:00
9:00 PM,69.8,68.0,94,30.03,6.2,WSW,2.3,-,N/A,,Scattered Clouds,250,2013-11-27 03:00:00
10:00 PM,68.0,68.0,100,30.03,6.2,Calm,Calm,-,N/A,,Scattered Clouds,0,2013-11-27 04:00:00
11:00 PM,68.0,66.2,94,30.02,6.2,NNE,3.5,-,N/A,,Scattered Clouds,20,2013-11-27 05:00:00